createdAt,value
2018-06-11T00:08:51.007Z,21.70
2018-06-11T00:18:56.683Z,21.70
2018-06-11T00:29:01.447Z,21.70
2018-06-11T00:39:08.976Z,21.70
2018-06-11T00:49:13.717Z,21.70
2018-06-11T00:59:18.642Z,21.70
2018-06-11T01:09:23.391Z,21.60
2018-06-11T01:19:28.099Z,21.70
2018-06-11T01:39:37.423Z,21.70
2018-06-11T01:49:42.040Z,21.60
2018-06-11T01:59:47.583Z,21.60
2018-06-11T02:09:52.352Z,21.60
2018-06-11T02:19:57.059Z,21.60
2018-06-11T02:30:01.797Z,21.60
2018-06-11T02:40:06.591Z,21.60
2018-06-11T02:50:11.256Z,21.60
2018-06-11T03:00:16.055Z,21.60
2018-06-11T03:10:20.853Z,21.60
2018-06-11T03:20:25.641Z,21.50
2018-06-11T03:30:30.539Z,21.60
2018-06-11T03:40:36.173Z,21.50
2018-06-11T03:50:40.996Z,21.50
2018-06-11T04:00:45.675Z,21.50
2018-06-11T04:10:50.450Z,21.50
2018-06-11T04:20:55.188Z,21.50
2018-06-11T04:31:01.002Z,21.50
2018-06-11T04:41:05.834Z,21.50
2018-06-11T04:51:10.671Z,21.50
2018-06-11T05:01:15.278Z,21.50
2018-06-11T05:11:20.005Z,21.50
2018-06-11T05:21:26.610Z,21.40
2018-06-11T05:31:31.646Z,21.40
2018-06-11T05:41:36.965Z,21.40
2018-06-11T05:51:41.829Z,21.40
2018-06-11T06:01:46.636Z,21.40
2018-06-11T06:11:51.679Z,21.40
2018-06-11T06:21:56.480Z,21.40
2018-06-11T06:32:01.196Z,21.40
2018-06-11T06:42:06.502Z,21.40
2018-06-11T06:52:11.176Z,21.40
2018-06-11T07:02:15.883Z,21.40
2018-06-11T07:12:20.542Z,21.30
2018-06-11T07:22:25.397Z,21.30
2018-06-11T07:32:30.208Z,21.40
2018-06-11T07:42:35.031Z,21.30
2018-06-11T07:52:39.860Z,21.30
2018-06-11T08:02:44.555Z,21.30
2018-06-11T08:12:50.346Z,21.40
2018-06-11T08:22:55.141Z,21.40
2018-06-11T08:32:59.953Z,21.40
2018-06-11T08:43:04.696Z,21.40
2018-06-11T08:53:10.036Z,21.40
2018-06-11T09:03:14.799Z,21.40
2018-06-11T09:13:19.624Z,21.40
2018-06-11T09:23:24.438Z,21.40
2018-06-11T09:33:29.383Z,21.40
2018-06-11T09:43:34.228Z,21.40
2018-06-11T09:53:39.071Z,21.40
2018-06-11T10:03:43.879Z,21.40
2018-06-11T10:13:48.613Z,21.40
2018-06-11T10:23:53.429Z,21.50
2018-06-11T10:33:58.615Z,21.50
2018-06-11T10:44:03.300Z,21.50
2018-06-11T10:54:08.187Z,21.50
2018-06-11T11:04:14.599Z,21.50
2018-06-11T11:14:19.401Z,21.50
2018-06-11T11:24:24.066Z,21.50
2018-06-11T11:34:28.823Z,21.50
2018-06-11T11:44:33.527Z,21.60
2018-06-11T11:54:38.315Z,21.50
2018-06-11T12:04:43.078Z,21.60
2018-06-11T12:14:47.855Z,21.60
2018-06-11T12:24:52.524Z,21.50
2018-06-11T12:34:57.322Z,21.60
2018-06-11T12:45:02.305Z,21.60
2018-06-11T12:55:07.412Z,21.60
2018-06-11T13:05:12.691Z,21.60
2018-06-11T13:15:17.588Z,21.60
2018-06-11T13:25:22.515Z,21.70
2018-06-11T13:35:27.218Z,21.70
2018-06-11T13:45:32.034Z,21.80
2018-06-11T13:55:36.659Z,21.80
2018-06-11T14:05:41.485Z,21.80
2018-06-11T14:15:46.175Z,21.80
2018-06-11T14:25:50.927Z,21.80
2018-06-11T14:35:55.704Z,21.90
2018-06-11T14:46:00.373Z,21.90
2018-06-11T14:56:05.256Z,21.90
2018-06-11T15:06:10.016Z,21.90
2018-06-11T15:16:14.705Z,22.00
2018-06-11T15:26:19.498Z,22.00
2018-06-11T15:36:24.391Z,22.00
2018-06-11T15:46:29.291Z,22.00
2018-06-11T15:56:34.136Z,22.10
2018-06-11T16:06:40.680Z,22.10
2018-06-11T16:16:45.624Z,22.10
2018-06-11T16:26:51.352Z,22.10
2018-06-11T16:36:56.140Z,22.10
2018-06-11T16:47:01.021Z,22.10
2018-06-11T16:57:05.818Z,22.10
2018-06-11T17:17:15.108Z,22.10
2018-06-11T17:27:19.770Z,22.10
2018-06-11T17:37:24.504Z,22.10
2018-06-11T17:47:29.193Z,22.10
2018-06-11T17:57:34.039Z,22.10
2018-06-11T18:07:39.140Z,22.10
2018-06-11T18:17:44.103Z,22.10
2018-06-11T18:27:48.916Z,22.10
2018-06-11T18:37:53.713Z,22.10
2018-06-11T18:58:03.861Z,22.20
2018-06-11T19:08:09.439Z,22.20
2018-06-11T19:18:14.161Z,22.20
2018-06-11T19:28:19.005Z,22.20
2018-06-11T19:38:23.909Z,22.20
2018-06-11T19:48:28.577Z,22.20
2018-06-11T19:58:33.289Z,22.20
2018-06-11T20:08:38.013Z,22.20
2018-06-11T20:18:42.916Z,22.20
2018-06-11T20:28:47.686Z,22.20
2018-06-11T20:38:52.477Z,22.20
2018-06-11T20:48:57.264Z,22.20
2018-06-11T20:59:02.038Z,22.20
2018-06-11T21:09:08.987Z,22.20
2018-06-11T21:19:13.868Z,22.20
2018-06-11T21:29:18.728Z,22.20
2018-06-11T21:39:24.121Z,22.20
2018-06-11T21:49:28.830Z,22.20
2018-06-11T21:59:33.486Z,22.20
2018-06-11T22:09:38.087Z,22.20
2018-06-11T22:19:42.860Z,22.20
2018-06-11T22:29:47.516Z,22.20
2018-06-11T22:39:52.190Z,22.20
2018-06-11T22:49:56.971Z,22.20
2018-06-11T23:00:02.577Z,22.20
2018-06-11T23:10:07.553Z,22.20
2018-06-11T23:20:12.568Z,22.20
2018-06-11T23:30:17.237Z,22.20
2018-06-11T23:40:22.018Z,22.10
2018-06-11T23:50:26.723Z,22.20
